CAZ9 EGPA-EGPB
Flight info
| Callsign | CAZ9 |
|---|---|
| Flight time | 0h 21m |
| Altitude | 19000 |
| Route | ML09 DCT PAM03 DCT IVDIS DCT ERDOG DCT MOCHA |
| Aircraft | C750/M-SBDE3FGHRWXY/S |
Departure
| Time | 2026-04-20 18:30 |
|---|---|
| Airport | Kirkwall Airport (EGPA) |
Arrival
| Time | 2026-04-20 18:52 |
|---|---|
| Airport | Sumburgh Airport (EGPB) |
| Time | Latitude | Longitude | Altitude | Speed | Heading |
|---|---|---|---|---|---|
| 2026-04-20 18:29 | 58.95781 | -2.90966 | 43 ft | 0 kts | 87° |
| 2026-04-20 18:30 | 58.95793 | -2.90467 | 45 ft | 94 kts | 87° |
| 2026-04-20 18:30 | 58.95820 | -2.88883 | 447 ft | 119 kts | 91° |
| 2026-04-20 18:30 | 58.96174 | -2.87447 | 1113 ft | 140 kts | 41° |
| 2026-04-20 18:31 | 58.97228 | -2.87268 | 1659 ft | 159 kts | 2° |
| 2026-04-20 18:31 | 58.98369 | -2.87371 | 2174 ft | 179 kts | 4° |
| 2026-04-20 18:31 | 58.99733 | -2.87443 | 2438 ft | 214 kts | 4° |
| 2026-04-20 18:31 | 59.01211 | -2.87516 | 3440 ft | 202 kts | 4° |
| 2026-04-20 18:32 | 59.02612 | -2.87607 | 4398 ft | 205 kts | 4° |
| 2026-04-20 18:32 | 59.04018 | -2.87260 | 5074 ft | 204 kts | 32° |
| 2026-04-20 18:32 | 59.04822 | -2.85230 | 5915 ft | 188 kts | 82° |
| 2026-04-20 18:32 | 59.04546 | -2.82845 | 6805 ft | 184 kts | 116° |
| 2026-04-20 18:33 | 59.03987 | -2.80622 | 7682 ft | 187 kts | 112° |
| 2026-04-20 18:33 | 59.03647 | -2.78165 | 8567 ft | 191 kts | 100° |
| 2026-04-20 18:33 | 59.03525 | -2.75577 | 9454 ft | 194 kts | 95° |
| 2026-04-20 18:33 | 59.03443 | -2.72941 | 10270 ft | 198 kts | 95° |
| 2026-04-20 18:34 | 59.03346 | -2.70256 | 10987 ft | 201 kts | 95° |
| 2026-04-20 18:34 | 59.03241 | -2.67523 | 11725 ft | 203 kts | 95° |
| 2026-04-20 18:34 | 59.03138 | -2.64769 | 12470 ft | 205 kts | 95° |
| 2026-04-20 18:34 | 59.03207 | -2.63012 | 12880 ft | 192 kts | 79° |
| 2026-04-20 18:35 | 59.03742 | -2.60594 | 13499 ft | 201 kts | 66° |
| 2026-04-20 18:35 | 59.04407 | -2.58010 | 13487 ft | 229 kts | 67° |
| 2026-04-20 18:35 | 59.05166 | -2.55007 | 13511 ft | 266 kts | 66° |
| 2026-04-20 18:35 | 59.06043 | -2.51569 | 13523 ft | 301 kts | 66° |
| 2026-04-20 18:36 | 59.07027 | -2.47732 | 13523 ft | 332 kts | 66° |
| 2026-04-20 18:36 | 59.08095 | -2.43550 | 13515 ft | 358 kts | 66° |
| 2026-04-20 18:36 | 59.09235 | -2.39070 | 13509 ft | 380 kts | 66° |
| 2026-04-20 18:36 | 59.10432 | -2.34357 | 13505 ft | 394 kts | 66° |
| 2026-04-20 18:37 | 59.11652 | -2.29552 | 13508 ft | 398 kts | 66° |
| 2026-04-20 18:37 | 59.12879 | -2.24698 | 13508 ft | 401 kts | 66° |
| 2026-04-20 18:37 | 59.14107 | -2.19823 | 13505 ft | 401 kts | 66° |
| 2026-04-20 18:37 | 59.15337 | -2.14935 | 13502 ft | 402 kts | 66° |
| 2026-04-20 18:38 | 59.16565 | -2.10044 | 13500 ft | 402 kts | 66° |
| 2026-04-20 18:38 | 59.17793 | -2.05141 | 13499 ft | 403 kts | 66° |
| 2026-04-20 18:38 | 59.19021 | -2.00231 | 13504 ft | 402 kts | 66° |
| 2026-04-20 18:38 | 59.20245 | -1.95320 | 13504 ft | 403 kts | 66° |
| 2026-04-20 18:39 | 59.21462 | -1.90430 | 13179 ft | 391 kts | 66° |
| 2026-04-20 18:39 | 59.22598 | -1.85878 | 12745 ft | 355 kts | 66° |
| 2026-04-20 18:39 | 59.23845 | -1.81927 | 12319 ft | 336 kts | 53° |
| 2026-04-20 18:39 | 59.25552 | -1.78795 | 12025 ft | 341 kts | 39° |
| 2026-04-20 18:40 | 59.27638 | -1.76585 | 11739 ft | 344 kts | 25° |
| 2026-04-20 18:40 | 59.29976 | -1.75468 | 11398 ft | 348 kts | 11° |
| 2026-04-20 18:40 | 59.32368 | -1.74894 | 10963 ft | 345 kts | 10° |
| 2026-04-20 18:40 | 59.34740 | -1.74313 | 10511 ft | 342 kts | 10° |
| 2026-04-20 18:41 | 59.37091 | -1.73711 | 10026 ft | 339 kts | 11° |
| 2026-04-20 18:41 | 59.39395 | -1.73127 | 9587 ft | 337 kts | 10° |
| 2026-04-20 18:41 | 59.41717 | -1.72548 | 9141 ft | 336 kts | 10° |
| 2026-04-20 18:41 | 59.44029 | -1.71969 | 8698 ft | 334 kts | 10° |
| 2026-04-20 18:42 | 59.46329 | -1.71389 | 8257 ft | 332 kts | 10° |
| 2026-04-20 18:42 | 59.48614 | -1.70812 | 7821 ft | 328 kts | 10° |
| 2026-04-20 18:42 | 59.50799 | -1.70267 | 7401 ft | 305 kts | 10° |
| 2026-04-20 18:42 | 59.52884 | -1.69738 | 7006 ft | 305 kts | 11° |
| 2026-04-20 18:43 | 59.54957 | -1.69205 | 6593 ft | 303 kts | 11° |
| 2026-04-20 18:43 | 59.56999 | -1.68690 | 6196 ft | 288 kts | 11° |
| 2026-04-20 18:43 | 59.58930 | -1.68209 | 5828 ft | 272 kts | 11° |
| 2026-04-20 18:43 | 59.60757 | -1.67743 | 5477 ft | 258 kts | 11° |
| 2026-04-20 18:44 | 59.62501 | -1.67296 | 5139 ft | 248 kts | 11° |
| 2026-04-20 18:44 | 59.64169 | -1.66871 | 4955 ft | 234 kts | 11° |
| 2026-04-20 18:44 | 59.65761 | -1.66465 | 4947 ft | 231 kts | 12° |
| 2026-04-20 18:44 | 59.67399 | -1.66035 | 4443 ft | 242 kts | 12° |
| 2026-04-20 18:45 | 59.69077 | -1.65609 | 3849 ft | 245 kts | 12° |
| 2026-04-20 18:45 | 59.70741 | -1.65192 | 3552 ft | 236 kts | 12° |
| 2026-04-20 18:45 | 59.72352 | -1.64781 | 3254 ft | 232 kts | 12° |
| 2026-04-20 18:45 | 59.73943 | -1.64369 | 2952 ft | 230 kts | 12° |
| 2026-04-20 18:46 | 59.75511 | -1.63966 | 2644 ft | 224 kts | 12° |
| 2026-04-20 18:46 | 59.77035 | -1.63578 | 2362 ft | 218 kts | 11° |
| 2026-04-20 18:46 | 59.78526 | -1.63220 | 2082 ft | 215 kts | 8° |
| 2026-04-20 18:46 | 59.79993 | -1.63465 | 2090 ft | 211 kts | 356° |
| 2026-04-20 18:47 | 59.81463 | -1.63817 | 2093 ft | 215 kts | 357° |
| 2026-04-20 18:47 | 59.82959 | -1.64147 | 2118 ft | 217 kts | 358° |
| 2026-04-20 18:47 | 59.84457 | -1.64129 | 2028 ft | 213 kts | 20° |
| 2026-04-20 18:47 | 59.85675 | -1.62662 | 2070 ft | 203 kts | 49° |
| 2026-04-20 18:48 | 59.86345 | -1.60287 | 2082 ft | 200 kts | 77° |
| 2026-04-20 18:48 | 59.86533 | -1.57574 | 2111 ft | 196 kts | 86° |
| 2026-04-20 18:48 | 59.86685 | -1.54858 | 2102 ft | 198 kts | 85° |
| 2026-04-20 18:48 | 59.86842 | -1.52144 | 2100 ft | 198 kts | 85° |
| 2026-04-20 18:49 | 59.86995 | -1.49491 | 1998 ft | 185 kts | 85° |
| 2026-04-20 18:49 | 59.87138 | -1.47074 | 1727 ft | 162 kts | 85° |
| 2026-04-20 18:49 | 59.87256 | -1.45054 | 1514 ft | 133 kts | 85° |
| 2026-04-20 18:49 | 59.87353 | -1.43353 | 1336 ft | 115 kts | 86° |
| 2026-04-20 18:50 | 59.87438 | -1.41861 | 1190 ft | 104 kts | 86° |
| 2026-04-20 18:50 | 59.87518 | -1.40452 | 1059 ft | 102 kts | 86° |
| 2026-04-20 18:50 | 59.87599 | -1.39033 | 918 ft | 104 kts | 86° |
| 2026-04-20 18:50 | 59.87680 | -1.37603 | 800 ft | 103 kts | 86° |
| 2026-04-20 18:51 | 59.87758 | -1.36188 | 643 ft | 103 kts | 86° |
| 2026-04-20 18:51 | 59.87861 | -1.34784 | 494 ft | 102 kts | 85° |
| 2026-04-20 18:51 | 59.87943 | -1.33376 | 319 ft | 101 kts | 87° |
| 2026-04-20 18:51 | 59.88011 | -1.32011 | 203 ft | 97 kts | 87° |
| 2026-04-20 18:52 | 59.88079 | -1.30710 | 69 ft | 93 kts | 86° |
| 2026-04-20 18:52 | 59.88135 | -1.29604 | 43 ft | 56 kts | 83° |
| 2026-04-20 18:52 | 59.88154 | -1.29225 | 42 ft | 11 kts | 99° |
| 2026-04-20 18:52 | 59.88094 | -1.29231 | 40 ft | 10 kts | 211° |
| 2026-04-20 18:53 | 59.88034 | -1.29304 | 40 ft | 10 kts | 211° |
| 2026-04-20 18:53 | 59.87979 | -1.29385 | 40 ft | 10 kts | 217° |
| 2026-04-20 18:53 | 59.87921 | -1.29420 | 40 ft | 8 kts | 156° |
| 2026-04-20 18:53 | 59.87895 | -1.29391 | 40 ft | 0 kts | 147° |
| 2026-04-20 18:54 | 59.87875 | -1.29361 | 40 ft | 9 kts | 143° |
| 2026-04-20 18:54 | 59.87818 | -1.29278 | 40 ft | 10 kts | 143° |
| 2026-04-20 18:54 | 59.87806 | -1.29201 | 40 ft | 4 kts | 60° |
| 2026-04-20 18:55 | 59.87802 | -1.29169 | 40 ft | 0 kts | 144° |